Time;durP1;ratioP1;P1;durP2;ratioP2;P2;SDS_P1;SDS_P2;PMS_P1;PMS_P2;Temp;Humidity;BMP_temperature;BMP_pressure;BME280_temperature;BME280_humidity;BME280_pressure;Samples;Min_cycle;Max_cycle;Signal;HPM_P1;HPM_P2
2023/08/02 00:04:55;;;;;;;;;0.50;0.50;;;;;;;;2;261076538;261076538;-79
2023/08/02 00:13:38;;;;;;;;;0.00;0.00;;;;;;;;2;243073722;243073722;-80
2023/08/02 00:21:53;;;;;;;;;0.50;0.50;;;;;;;;2;261076009;261076009;-82
2023/08/02 00:30:42;;;;;;;;;0.00;0.00;;;;;;;;2;243072612;243072612;-80
2023/08/02 00:38:58;;;;;;;;;0.50;0.50;;;;;;;;2;261072897;261072897;-82
2023/08/02 00:47:40;;;;;;;;;0.00;0.00;;;;;;;;2;243071352;243071352;-82
2023/08/02 00:55:56;;;;;;;;;0.00;0.00;;;;;;;;2;261077340;261077340;-76
2023/08/02 01:04:39;;;;;;;;;0.00;0.00;;;;;;;;2;243073906;243073906;-77
2023/08/02 01:12:55;;;;;;;;;8.50;1.00;;;;;;;;2;261075829;261075829;-76
2023/08/02 01:21:37;;;;;;;;;0.50;0.50;;;;;;;;2;243073932;243073932;-78
2023/08/02 01:29:54;;;;;;;;;0.00;0.00;;;;;;;;2;261074753;261074753;-76
2023/08/02 01:38:36;;;;;;;;;0.00;0.00;;;;;;;;2;243074293;243074293;-77
2023/08/02 01:46:52;;;;;;;;;0.00;0.00;;;;;;;;2;261078595;261078595;-77
2023/08/02 01:55:34;;;;;;;;;0.00;0.00;;;;;;;;2;243071712;243071712;-79
2023/08/02 02:03:50;;;;;;;;;0.00;0.00;;;;;;;;2;261076616;261076616;-75
2023/08/02 02:12:32;;;;;;;;;0.00;0.00;;;;;;;;2;243071367;243071367;-75
2023/08/02 02:20:48;;;;;;;;;0.00;0.00;;;;;;;;2;261079909;261079909;-74
2023/08/02 02:29:30;;;;;;;;;0.00;0.00;;;;;;;;2;243074255;243074255;-74
2023/08/02 02:37:46;;;;;;;;;0.00;0.00;;;;;;;;2;261078956;261078956;-73
2023/08/02 02:46:28;;;;;;;;;0.00;0.00;;;;;;;;2;243073559;243073559;-74
2023/08/02 02:54:43;;;;;;;;;0.00;0.00;;;;;;;;2;261079861;261079861;-74
2023/08/02 03:03:26;;;;;;;;;0.00;0.00;;;;;;;;2;243075775;243075775;-74
2023/08/02 03:11:41;;;;;;;;;0.00;0.00;;;;;;;;2;261078476;261078476;-76
2023/08/02 03:23:44;;;;;;;;;0.50;0.50;;;;;;;;2;243070595;243070595;-76
2023/08/02 03:32:00;;;;;;;;;0.00;0.00;;;;;;;;2;261076579;261076579;-78
2023/08/02 03:40:43;;;;;;;;;0.00;0.00;;;;;;;;2;243069471;243069471;-78
2023/08/02 03:48:58;;;;;;;;;0.00;0.00;;;;;;;;2;261076191;261076191;-77
2023/08/02 03:57:41;;;;;;;;;0.00;0.00;;;;;;;;2;243071553;243071553;-76
2023/08/02 04:05:57;;;;;;;;;0.00;0.00;;;;;;;;2;261075286;261075286;-76
2023/08/02 04:14:39;;;;;;;;;0.00;0.00;;;;;;;;2;243072116;243072116;-75
2023/08/02 04:22:55;;;;;;;;;0.00;0.00;;;;;;;;2;261078172;261078172;-75
2023/08/02 04:31:37;;;;;;;;;0.00;0.00;;;;;;;;2;243072783;243072783;-75
2023/08/02 04:39:52;;;;;;;;;0.00;0.00;;;;;;;;2;261077374;261077374;-75
2023/08/02 04:48:35;;;;;;;;;0.00;0.00;;;;;;;;2;243074462;243074462;-75
2023/08/02 04:56:50;;;;;;;;;0.00;0.00;;;;;;;;2;261077847;261077847;-74
2023/08/02 05:05:33;;;;;;;;;0.00;0.00;;;;;;;;2;243070603;243070603;-75
2023/08/02 05:13:48;;;;;;;;;0.00;0.00;;;;;;;;2;261078537;261078537;-74
2023/08/02 05:22:33;;;;;;;;;0.00;0.00;;;;;;;;2;243074620;243074620;-76
2023/08/02 05:30:48;;;;;;;;;0.00;0.00;;;;;;;;2;261073332;261073332;-77
2023/08/02 05:39:31;;;;;;;;;0.00;0.00;;;;;;;;2;243070731;243070731;-81
2023/08/02 05:47:48;;;;;;;;;0.00;0.00;;;;;;;;2;261074893;261074893;-76
2023/08/02 05:56:31;;;;;;;;;0.00;0.00;;;;;;;;2;243071425;243071425;-79
2023/08/02 06:04:46;;;;;;;;;0.00;0.00;;;;;;;;2;261073942;261073942;-77
2023/08/02 06:13:29;;;;;;;;;0.00;0.00;;;;;;;;2;243070153;243070153;-80
2023/08/02 06:21:44;;;;;;;;;0.00;0.00;;;;;;;;2;261074789;261074789;-77
2023/08/02 06:30:26;;;;;;;;;0.00;0.00;;;;;;;;2;243074323;243074323;-81
2023/08/02 06:38:44;;;;;;;;;0.00;0.00;;;;;;;;2;261072737;261072737;-79
2023/08/02 06:47:26;;;;;;;;;0.00;0.00;;;;;;;;2;243067941;243067941;-79
2023/08/02 06:55:41;;;;;;;;;0.00;0.00;;;;;;;;2;261077703;261077703;-79
2023/08/02 07:04:24;;;;;;;;;0.00;0.00;;;;;;;;2;243071903;243071903;-76
2023/08/02 07:12:39;;;;;;;;;0.00;0.00;;;;;;;;2;261074639;261074639;-86
2023/08/02 07:21:22;;;;;;;;;0.00;0.00;;;;;;;;2;243071023;243071023;-84
2023/08/02 07:29:37;;;;;;;;;0.00;0.00;;;;;;;;2;261072729;261072729;-84
2023/08/02 07:38:19;;;;;;;;;0.00;0.00;;;;;;;;2;243067607;243067607;-86
2023/08/02 07:46:35;;;;;;;;;0.00;0.00;;;;;;;;2;261074357;261074357;-82
2023/08/02 07:55:17;;;;;;;;;0.00;0.00;;;;;;;;2;243068280;243068280;-81
2023/08/02 08:03:33;;;;;;;;;0.00;0.00;;;;;;;;2;261074840;261074840;-78
2023/08/02 08:12:15;;;;;;;;;0.00;0.00;;;;;;;;2;243068038;243068038;-81
2023/08/02 08:20:30;;;;;;;;;0.00;0.00;;;;;;;;2;261073055;261073055;-78
2023/08/02 08:29:13;;;;;;;;;0.00;0.00;;;;;;;;2;243073008;243073008;-76
2023/08/02 08:37:28;;;;;;;;;0.00;0.00;;;;;;;;2;261075350;261075350;-77
2023/08/02 08:46:11;;;;;;;;;0.00;0.00;;;;;;;;2;243071566;243071566;-76
2023/08/02 08:54:27;;;;;;;;;0.00;0.00;;;;;;;;2;261077067;261077067;-76
2023/08/02 09:03:12;;;;;;;;;11.00;0.00;;;;;;;;2;243071603;243071603;-76
2023/08/02 09:11:28;;;;;;;;;0.00;0.00;;;;;;;;2;261078857;261078857;-76
2023/08/02 09:20:10;;;;;;;;;0.00;0.00;;;;;;;;2;243074191;243074191;-75
2023/08/02 09:28:26;;;;;;;;;0.50;0.50;;;;;;;;2;261077351;261077351;-75
2023/08/02 09:37:10;;;;;;;;;0.00;0.00;;;;;;;;2;243074014;243074014;-77
2023/08/02 09:45:33;;;;;;;;;0.00;0.00;;;;;;;;2;261080094;261080094;-75
2023/08/02 09:54:15;;;;;;;;;0.00;0.00;;;;;;;;2;243069897;243069897;-72
2023/08/02 10:02:31;;;;;;;;;0.00;0.00;;;;;;;;2;261078123;261078123;-71
2023/08/02 10:11:14;;;;;;;;;0.00;0.00;;;;;;;;2;243072329;243072329;-71
2023/08/02 10:19:30;;;;;;;;;0.00;0.00;;;;;;;;2;261080908;261080908;-71
2023/08/02 10:28:13;;;;;;;;;0.00;0.00;;;;;;;;2;243072951;243072951;-72
2023/08/02 10:36:48;;;;;;;;;0.00;0.00;;;;;;;;2;261078210;261078210;-70
2023/08/02 10:45:31;;;;;;;;;0.00;0.00;;;;;;;;2;243075090;243075090;-70
2023/08/02 10:54:06;;;;;;;;;0.00;0.00;;;;;;;;2;261077525;261077525;-71
2023/08/02 11:02:49;;;;;;;;;0.00;0.00;;;;;;;;2;243073358;243073358;-71
2023/08/02 11:11:04;;;;;;;;;0.00;0.00;;;;;;;;2;261077726;261077726;-71
2023/08/02 11:19:48;;;;;;;;;0.00;0.00;;;;;;;;2;243076821;243076821;-71
2023/08/02 11:28:04;;;;;;;;;0.00;0.00;;;;;;;;2;261078340;261078340;-71
2023/08/02 11:36:47;;;;;;;;;0.00;0.00;;;;;;;;2;243072225;243072225;-70
2023/08/02 11:45:02;;;;;;;;;0.00;0.00;;;;;;;;2;261077773;261077773;-70
2023/08/02 11:53:51;;;;;;;;;1.00;1.00;;;;;;;;2;243074931;243074931;-71
2023/08/02 12:02:21;;;;;;;;;0.00;0.00;;;;;;;;2;261080236;261080236;-70
2023/08/02 12:11:13;;;;;;;;;0.00;0.00;;;;;;;;2;243073720;243073720;-71
2023/08/02 12:19:38;;;;;;;;;0.00;0.00;;;;;;;;2;261077858;261077858;-70
2023/08/02 12:28:21;;;;;;;;;0.00;0.00;;;;;;;;2;243071646;243071646;-72
2023/08/02 12:36:36;;;;;;;;;0.00;0.00;;;;;;;;2;261078816;261078816;-72
2023/08/02 12:45:25;;;;;;;;;0.00;0.00;;;;;;;;2;243073416;243073416;-73
2023/08/02 12:53:41;;;;;;;;;0.00;0.00;;;;;;;;2;261077120;261077120;-72
2023/08/02 13:02:23;;;;;;;;;0.00;0.00;;;;;;;;2;243074598;243074598;-72
2023/08/02 13:10:39;;;;;;;;;0.00;0.00;;;;;;;;2;261078695;261078695;-72
2023/08/02 13:19:22;;;;;;;;;0.50;0.50;;;;;;;;2;243069669;243069669;-70
2023/08/02 13:27:37;;;;;;;;;0.00;0.00;;;;;;;;2;261079694;261079694;-73
2023/08/02 13:36:19;;;;;;;;;0.50;0.50;;;;;;;;2;243074404;243074404;-72
2023/08/02 13:44:35;;;;;;;;;0.00;0.00;;;;;;;;2;261077930;261077930;-72
2023/08/02 13:53:17;;;;;;;;;0.00;0.00;;;;;;;;2;243074545;243074545;-72
2023/08/02 14:01:33;;;;;;;;;0.00;0.00;;;;;;;;2;261077864;261077864;-72
2023/08/02 14:10:15;;;;;;;;;0.00;0.00;;;;;;;;2;243073509;243073509;-72
2023/08/02 14:18:30;;;;;;;;;0.00;0.00;;;;;;;;2;261078108;261078108;-71
2023/08/02 14:27:13;;;;;;;;;0.00;0.00;;;;;;;;2;243075979;243075979;-73
2023/08/02 14:35:28;;;;;;;;;0.00;0.00;;;;;;;;2;261079446;261079446;-71
2023/08/02 14:44:11;;;;;;;;;0.00;0.00;;;;;;;;2;243074402;243074402;-71
2023/08/02 14:52:26;;;;;;;;;0.50;0.50;;;;;;;;2;261080529;261080529;-71
2023/08/02 15:01:08;;;;;;;;;0.00;0.00;;;;;;;;2;243073974;243073974;-72
2023/08/02 15:09:24;;;;;;;;;0.50;0.50;;;;;;;;2;261077562;261077562;-70
2023/08/02 15:18:06;;;;;;;;;0.00;0.00;;;;;;;;2;243071879;243071879;-71
2023/08/02 15:26:22;;;;;;;;;0.00;0.00;;;;;;;;2;261079466;261079466;-71
2023/08/02 15:35:04;;;;;;;;;0.00;0.00;;;;;;;;2;243072778;243072778;-71
2023/08/02 15:43:20;;;;;;;;;0.00;0.00;;;;;;;;2;261079717;261079717;-70
2023/08/02 15:52:02;;;;;;;;;7.50;0.00;;;;;;;;2;243073002;243073002;-71
2023/08/02 16:00:18;;;;;;;;;0.00;0.00;;;;;;;;2;261080995;261080995;-70
2023/08/02 16:09:03;;;;;;;;;0.00;0.00;;;;;;;;2;243072797;243072797;-70
2023/08/02 16:17:18;;;;;;;;;0.00;0.00;;;;;;;;2;261079815;261079815;-70
2023/08/02 16:26:01;;;;;;;;;0.00;0.00;;;;;;;;2;243072938;243072938;-69
2023/08/02 16:34:16;;;;;;;;;0.00;0.00;;;;;;;;2;261078191;261078191;-70
2023/08/02 16:42:58;;;;;;;;;0.00;0.00;;;;;;;;2;243069746;243069746;-74
2023/08/02 16:51:14;;;;;;;;;0.00;0.00;;;;;;;;2;261076565;261076565;-72
2023/08/02 16:59:56;;;;;;;;;0.00;0.00;;;;;;;;2;243073297;243073297;-71
2023/08/02 17:08:12;;;;;;;;;3.50;0.50;;;;;;;;2;261080201;261080201;-71
2023/08/02 17:16:54;;;;;;;;;0.00;0.00;;;;;;;;2;243076669;243076669;-70
2023/08/02 17:25:09;;;;;;;;;0.00;0.00;;;;;;;;2;261078687;261078687;-71
2023/08/02 17:33:52;;;;;;;;;0.00;0.00;;;;;;;;2;243073151;243073151;-71
2023/08/02 17:42:08;;;;;;;;;1.00;1.00;;;;;;;;2;261078078;261078078;-71
2023/08/02 17:50:55;;;;;;;;;0.50;0.50;;;;;;;;2;243074653;243074653;-70
2023/08/02 17:59:12;;;;;;;;;0.50;0.50;;;;;;;;2;261079502;261079502;-70
2023/08/02 18:07:54;;;;;;;;;0.00;0.00;;;;;;;;2;243076701;243076701;-70
2023/08/02 18:16:10;;;;;;;;;0.00;0.00;;;;;;;;2;261080435;261080435;-70
2023/08/02 18:24:53;;;;;;;;;1.50;1.50;;;;;;;;2;243074420;243074420;-70
2023/08/02 18:33:08;;;;;;;;;0.00;0.00;;;;;;;;2;261079766;261079766;-69
2023/08/02 18:41:51;;;;;;;;;0.00;0.00;;;;;;;;2;243072523;243072523;-70
2023/08/02 18:50:06;;;;;;;;;0.00;0.00;;;;;;;;2;261080263;261080263;-69
2023/08/02 18:58:49;;;;;;;;;0.00;0.00;;;;;;;;2;243072355;243072355;-70
2023/08/02 19:07:04;;;;;;;;;4.50;0.50;;;;;;;;2;261079011;261079011;-70
2023/08/02 19:15:47;;;;;;;;;0.00;0.00;;;;;;;;2;243071998;243071998;-70
2023/08/02 19:24:03;;;;;;;;;0.00;0.00;;;;;;;;2;261078779;261078779;-70
2023/08/02 19:32:36;;;;;;;;;0.00;0.00;;;;;;;;2;234065304;234065304;-70
2023/08/02 19:40:56;;;;;;;;;0.00;0.00;;;;;;;;2;261080116;261080116;-71
2023/08/02 19:49:38;;;;;;;;;0.00;0.00;;;;;;;;2;243072841;243072841;-70
2023/08/02 19:52:17;;;;;;;;;0.00;0.00;;;;;;;;2;157009047;157009047;-70
2023/08/02 19:59:58;;;;;;;;;1.00;1.00;;;;;;;;508026;28;279079838;-70
2023/08/02 20:03:44;;;;;;;;;0.00;0.00;;;;;;;;1500893;28;103532165;-70
2023/08/02 20:13:37;;;;;;;;;0.00;0.00;;;;;;;;614279;28;261076451;-70
2023/08/02 20:22:20;;;;;;;;;0.50;0.50;;;;;;;;2;243076477;243076477;-70
2023/08/02 20:30:35;;;;;;;;;0.00;0.00;;;;;;;;2;261079046;261079046;-70
2023/08/02 20:39:16;;;;;;;;;2.50;0.00;;;;;;;;2;241610435;241610435;-69
2023/08/02 20:47:31;;;;;;;;;0.00;0.00;;;;;;;;2;260748940;260748940;-71
2023/08/02 20:56:16;;;;;;;;;0.00;0.00;;;;;;;;2;243073393;243073393;-70
2023/08/02 21:04:31;;;;;;;;;0.00;0.00;;;;;;;;2;261076504;261076504;-70
2023/08/02 21:13:13;;;;;;;;;0.00;0.00;;;;;;;;2;243074710;243074710;-71
2023/08/02 21:21:28;;;;;;;;;0.00;0.00;;;;;;;;2;261078833;261078833;-69
2023/08/02 21:30:12;;;;;;;;;0.00;0.00;;;;;;;;2;243075761;243075761;-70
2023/08/02 21:38:32;;;;;;;;;0.00;0.00;;;;;;;;2;261077868;261077868;-72
2023/08/02 21:47:14;;;;;;;;;0.00;0.00;;;;;;;;2;243071678;243071678;-73
2023/08/02 21:55:32;;;;;;;;;0.00;0.00;;;;;;;;2;261078333;261078333;-73
2023/08/02 22:02:24;;;;;;;;;0.00;0.00;;;;;;;;2;243040215;243040215;-72
2023/08/02 22:10:08;;;;;;;;;0.00;0.00;;;;;;;;2;261079625;261079625;-73
2023/08/02 22:18:51;;;;;;;;;0.00;0.00;;;;;;;;2;243072998;243072998;-73
2023/08/02 22:27:06;;;;;;;;;0.00;0.00;;;;;;;;2;261078669;261078669;-72
2023/08/02 22:35:48;;;;;;;;;0.00;0.00;;;;;;;;2;243075337;243075337;-70
2023/08/02 22:44:04;;;;;;;;;0.00;0.00;;;;;;;;2;261079320;261079320;-69
2023/08/02 22:52:46;;;;;;;;;0.00;0.00;;;;;;;;2;243076045;243076045;-69
2023/08/02 23:00:11;;;;;;;;;0.00;0.00;;;;;;;;2;261080293;261080293;-70
2023/08/02 23:09:16;;;;;;;;;1.00;1.00;;;;;;;;132437;28;279083461;-69
2023/08/02 23:17:14;;;;;;;;;8.00;0.00;;;;;;;;2;234071237;234071237;-70
2023/08/02 23:26:14;;;;;;;;;0.00;0.00;;;;;;;;2;279082677;279082677;-69
2023/08/02 23:34:11;;;;;;;;;0.50;0.50;;;;;;;;2;234072175;234072175;-69
2023/08/02 23:43:12;;;;;;;;;1.50;1.50;;;;;;;;2;279084696;279084696;-69
2023/08/02 23:51:09;;;;;;;;;0.00;0.00;;;;;;;;2;234070428;234070428;-69
